Time;durP1;ratioP1;P1;durP2;ratioP2;P2;SDS_P1;SDS_P2;PMS_P1;PMS_P2;Temp;Humidity;BMP_temperature;BMP_pressure;BME280_temperature;BME280_humidity;BME280_pressure;Samples;Min_cycle;Max_cycle;Signal;HPM_P1;HPM_P2
2022/01/16 00:04:17;;;;;;;18.70;13.03;;;;;;;2.14;100.00;101821.88;5113166;28;20215;-69
2022/01/16 00:06:47;;;;;;;25.23;13.13;;;;;;;2.03;100.00;101823.50;5113029;28;20232;-70
2022/01/16 00:09:14;;;;;;;21.43;13.80;;;;;;;1.94;100.00;101839.75;5113138;28;20185;-70
2022/01/16 00:11:42;;;;;;;24.27;13.43;;;;;;;2.07;100.00;101839.06;5113085;28;20196;-69
2022/01/16 00:14:10;;;;;;;24.23;13.87;;;;;;;2.09;100.00;101823.56;5097720;28;20201;-69
2022/01/16 00:16:39;;;;;;;22.23;13.33;;;;;;;2.01;100.00;101813.16;5116842;28;20274;-69
2022/01/16 00:19:06;;;;;;;23.13;15.00;;;;;;;2.02;100.00;101819.19;5117214;28;20183;-69
2022/01/16 00:21:37;;;;;;;23.90;14.27;;;;;;;1.95;100.00;101817.38;5116791;28;20193;-69
2022/01/16 00:24:04;;;;;;;22.77;13.83;;;;;;;1.98;100.00;101830.31;5117185;28;20603;-69
2022/01/16 00:26:30;;;;;;;16.70;12.60;;;;;;;2.08;100.00;101821.84;5116678;28;20225;-70
2022/01/16 00:28:57;;;;;;;18.57;12.17;;;;;;;2.07;100.00;101817.50;5116466;28;20189;-70
2022/01/16 00:31:24;;;;;;;21.17;13.90;;;;;;;2.10;100.00;101821.00;5116977;28;20189;-69
2022/01/16 00:33:51;;;;;;;22.53;12.73;;;;;;;2.03;100.00;101823.50;5116355;28;20189;-69
2022/01/16 00:36:19;;;;;;;27.70;15.13;;;;;;;2.13;100.00;101820.16;5116291;28;20206;-70
2022/01/16 00:38:47;;;;;;;30.43;14.20;;;;;;;2.12;100.00;101826.16;5098271;28;20659;-69
2022/01/16 00:41:17;;;;;;;19.53;13.93;;;;;;;2.11;100.00;101837.34;5116267;28;20550;-69
2022/01/16 00:43:44;;;;;;;26.13;15.23;;;;;;;2.10;100.00;101843.38;5116499;28;20190;-69
2022/01/16 00:46:11;;;;;;;33.17;14.70;;;;;;;2.05;100.00;101832.13;5116371;28;20232;-70
2022/01/16 00:48:37;;;;;;;26.63;14.40;;;;;;;1.88;100.00;101806.97;5116324;28;20186;-70
2022/01/16 00:51:04;;;;;;;22.07;14.03;;;;;;;1.80;100.00;101823.22;5116051;28;20192;-69
2022/01/16 00:53:31;;;;;;;22.00;13.77;;;;;;;1.87;100.00;101837.94;5116287;28;20189;-69
2022/01/16 00:55:57;;;;;;;26.23;14.50;;;;;;;1.96;100.00;101826.84;5116140;28;20186;-70
2022/01/16 00:58:24;;;;;;;27.10;14.67;;;;;;;2.01;100.00;101832.94;5116434;28;20192;-69
2022/01/16 01:00:50;;;;;;;21.17;14.70;;;;;;;1.92;100.00;101828.50;5116420;28;20201;-69
2022/01/16 01:03:17;;;;;;;17.17;12.77;;;;;;;1.83;100.00;101815.50;5115830;28;20181;-69
2022/01/16 01:05:44;;;;;;;22.93;13.53;;;;;;;1.73;100.00;101796.47;5116001;28;20181;-69
2022/01/16 01:08:11;;;;;;;27.43;14.37;;;;;;;1.59;100.00;101839.28;5115527;28;20702;-69
2022/01/16 01:10:40;;;;;;;27.90;14.03;;;;;;;1.54;100.00;101836.63;5115703;28;20196;-69
2022/01/16 01:13:32;;;;;;;23.73;12.30;;;;;;;1.58;100.00;101843.59;5115891;28;20189;-69
2022/01/16 01:16:04;;;;;;;36.17;15.23;;;;;;;1.63;100.00;101841.06;5115734;28;20173;-69
2022/01/16 01:18:34;;;;;;;32.03;15.10;;;;;;;1.66;100.00;101861.75;5115861;28;20512;-69
2022/01/16 01:21:03;;;;;;;30.10;15.40;;;;;;;1.60;100.00;101859.94;5115474;28;20189;-69
2022/01/16 01:23:30;;;;;;;31.03;16.23;;;;;;;1.52;100.00;101853.81;5115415;28;20264;-69
2022/01/16 01:25:56;;;;;;;24.30;15.23;;;;;;;1.51;100.00;101857.25;5114982;28;20543;-69
2022/01/16 01:28:23;;;;;;;30.40;16.43;;;;;;;1.58;100.00;101878.84;5115331;28;20185;-69
2022/01/16 01:30:50;;;;;;;30.63;16.70;;;;;;;1.52;100.00;101871.03;5115566;28;20181;-69
2022/01/16 01:33:19;;;;;;;30.73;15.67;;;;;;;1.50;100.00;101878.75;5115468;28;20654;-69
2022/01/16 01:35:46;;;;;;;29.30;15.93;;;;;;;1.55;100.00;101859.00;5115404;28;20196;-69
2022/01/16 01:38:17;;;;;;;29.57;16.90;;;;;;;1.61;100.00;101804.03;5115676;28;20177;-69
2022/01/16 01:40:47;;;;;;;35.83;16.10;;;;;;;1.64;100.00;101791.16;5115360;28;20665;-69
2022/01/16 01:51:18;;;;;;;29.27;17.63;;;;;;;1.57;100.00;101815.16;5115158;28;20238;-69
2022/01/16 01:53:45;;;;;;;25.10;17.00;;;;;;;1.61;100.00;101824.69;5114802;28;20199;-69
2022/01/16 01:56:17;;;;;;;33.10;17.20;;;;;;;1.58;100.00;101843.59;5114953;28;20213;-70
2022/01/16 01:58:45;;;;;;;33.20;18.03;;;;;;;1.62;100.00;101849.66;5115323;28;20177;-69
2022/01/16 02:01:11;;;;;;;34.87;18.20;;;;;;;1.74;100.00;101854.97;5115238;28;20207;-69
2022/01/16 02:06:11;;;;;;;23.47;16.73;;;;;;;1.79;100.00;101852.47;5114476;28;20239;-70
2022/01/16 02:08:38;;;;;;;28.07;17.37;;;;;;;1.82;100.00;101868.84;5115168;28;20239;-69
2022/01/16 02:11:04;;;;;;;24.43;16.73;;;;;;;1.89;100.00;101870.66;5114522;28;20193;-69
2022/01/16 02:13:35;;;;;;;31.43;17.67;;;;;;;2.02;100.00;101856.19;5114818;28;20176;-70
2022/01/16 02:34:40;;;;;;;29.57;17.40;;;;;;;1.90;99.61;101869.81;5114449;28;20228;-69
2022/01/16 02:37:11;;;;;;;28.07;17.90;;;;;;;1.96;99.44;101855.25;5114269;28;20209;-69
2022/01/16 02:39:42;;;;;;;38.97;19.33;;;;;;;1.94;99.25;101852.66;5114342;28;20685;-69
2022/01/16 02:42:11;;;;;;;35.77;18.47;;;;;;;2.00;99.15;101857.00;5114032;28;20162;-70
2022/01/16 02:44:49;;;;;;;28.53;17.73;;;;;;;1.93;99.14;101862.13;5114265;28;20185;-69
2022/01/16 02:47:19;;;;;;;29.07;17.03;;;;;;;1.96;99.00;101852.69;5113800;28;20265;-69
2022/01/16 02:49:48;;;;;;;33.03;19.30;;;;;;;1.97;98.49;101841.50;5113890;28;20185;-69
2022/01/16 02:52:18;;;;;;;40.10;18.23;;;;;;;1.93;98.78;101840.59;5114699;28;20573;-69
2022/01/16 02:54:46;;;;;;;31.10;17.40;;;;;;;1.84;98.90;101832.72;5113897;28;20193;-70
2022/01/16 02:57:16;;;;;;;33.57;18.37;;;;;;;1.87;99.05;101836.22;5095805;28;20609;-69
2022/01/16 02:59:48;;;;;;;32.70;17.87;;;;;;;1.88;99.00;101827.63;5113737;28;20200;-69
2022/01/16 03:02:16;;;;;;;26.97;16.93;;;;;;;2.02;98.67;101808.84;5113998;28;20169;-69
2022/01/16 03:04:43;;;;;;;39.03;18.03;;;;;;;2.00;98.65;101808.84;5114255;28;20196;-69
2022/01/16 03:07:11;;;;;;;26.87;16.40;;;;;;;1.91;98.45;101812.16;5113529;28;20205;-70
2022/01/16 03:12:12;;;;;;;38.77;16.83;;;;;;;1.87;98.50;101804.38;5114265;28;20226;-69
2022/01/16 03:14:39;;;;;;;29.93;18.00;;;;;;;1.89;98.17;101797.50;5113933;28;20219;-69
2022/01/16 03:17:06;;;;;;;33.47;19.03;;;;;;;1.81;98.53;101789.66;5114055;28;20207;-69
2022/01/16 03:22:18;;;;;;;36.97;18.53;;;;;;;1.88;98.36;101781.16;5113910;28;20620;-69
2022/01/16 03:24:45;;;;;;;46.80;20.27;;;;;;;2.02;98.22;101781.31;5113556;28;20580;-69
2022/01/16 03:27:19;;;;;;;43.63;21.07;;;;;;;1.91;98.21;101781.16;5113333;28;20216;-69
2022/01/16 03:29:49;;;;;;;43.73;21.97;;;;;;;1.87;98.45;101776.84;5113492;28;20193;-69
2022/01/16 03:32:19;;;;;;;47.43;22.23;;;;;;;1.92;98.49;101772.56;5113998;28;20193;-69
2022/01/16 03:34:46;;;;;;;48.77;22.00;;;;;;;1.93;98.59;101766.56;5095440;28;20280;-69
2022/01/16 03:37:13;;;;;;;48.47;22.30;;;;;;;2.02;98.35;101765.81;5113623;28;20291;-69
2022/01/16 03:39:39;;;;;;;41.47;20.03;;;;;;;2.01;98.55;101774.41;5113421;28;20189;-69
2022/01/16 03:42:07;;;;;;;51.17;21.80;;;;;;;1.98;98.51;101781.22;5113398;28;20188;-69
2022/01/16 03:44:34;;;;;;;49.87;23.00;;;;;;;2.04;98.50;101778.72;5113639;28;20182;-69
2022/01/16 03:47:00;;;;;;;48.33;24.57;;;;;;;2.16;97.96;101776.28;5113496;28;20292;-69
2022/01/16 03:49:29;;;;;;;44.53;22.57;;;;;;;2.16;97.40;101771.97;5117704;28;20193;-69
2022/01/16 03:51:57;;;;;;;47.93;23.27;;;;;;;2.16;97.21;101789.19;5117540;28;20204;-69
2022/01/16 03:54:27;;;;;;;51.43;22.90;;;;;;;2.10;97.56;101781.38;5117722;28;20542;-69
2022/01/16 03:56:55;;;;;;;51.80;22.77;;;;;;;2.07;97.57;101787.38;5117632;28;20209;-69
2022/01/16 03:59:22;;;;;;;45.40;22.77;;;;;;;2.09;97.54;101787.41;5117084;28;20185;-69
2022/01/16 04:01:49;;;;;;;53.27;24.47;;;;;;;2.17;97.16;101783.19;5117048;28;20550;-69
2022/01/16 04:04:15;;;;;;;62.87;25.00;;;;;;;2.18;97.19;101784.91;5117232;28;20185;-69
2022/01/16 04:06:42;;;;;;;56.03;24.43;;;;;;;2.21;96.69;101787.50;5099026;28;20209;-69
2022/01/16 04:09:08;;;;;;;50.47;23.87;;;;;;;2.17;96.79;101796.09;5117205;28;20185;-69
2022/01/16 04:11:37;;;;;;;54.00;25.03;;;;;;;2.23;97.06;101796.16;5098633;28;20189;-69
2022/01/16 04:14:08;;;;;;;51.60;26.07;;;;;;;2.22;97.34;101799.59;5116786;28;20654;-69
2022/01/16 04:16:35;;;;;;;53.57;23.77;;;;;;;2.29;97.11;101790.19;5117270;28;20213;-69
2022/01/16 04:19:03;;;;;;;63.93;26.77;;;;;;;2.16;96.87;101802.97;5117526;28;20573;-69
2022/01/16 04:21:30;;;;;;;55.83;25.57;;;;;;;2.12;97.06;101805.50;5116560;28;20197;-69
2022/01/16 04:23:57;;;;;;;54.30;25.70;;;;;;;1.99;97.16;101801.03;5116593;28;20185;-69
2022/01/16 04:26:25;;;;;;;57.03;24.80;;;;;;;1.88;97.17;101806.97;5116485;28;20329;-69
2022/01/16 04:28:55;;;;;;;60.30;27.70;;;;;;;1.88;97.27;101801.81;5116674;28;20205;-69
2022/01/16 04:31:22;;;;;;;52.60;26.00;;;;;;;1.86;97.52;101806.09;5116750;28;20193;-69
2022/01/16 04:33:49;;;;;;;63.13;26.47;;;;;;;1.80;97.77;101806.00;5116459;28;20600;-69
2022/01/16 04:36:15;;;;;;;60.23;25.77;;;;;;;1.78;97.88;101794.78;5116523;28;20608;-70
2022/01/16 04:38:47;;;;;;;56.40;25.23;;;;;;;1.84;97.93;101814.66;5116586;28;20211;-70
2022/01/16 04:44:02;;;;;;;55.53;26.03;;;;;;;2.00;97.82;101815.69;5116563;28;20642;-69
2022/01/16 04:46:29;;;;;;;64.70;25.13;;;;;;;2.02;97.75;101819.19;5116347;28;20212;-69
2022/01/16 04:48:58;;;;;;;64.00;27.13;;;;;;;2.04;97.84;101817.47;5116572;28;20205;-69
2022/01/16 04:51:26;;;;;;;64.47;27.40;;;;;;;2.09;97.31;101810.66;5116064;28;20185;-69
2022/01/16 04:53:53;;;;;;;64.10;26.03;;;;;;;2.07;97.40;101820.06;5116283;28;20250;-69
2022/01/16 04:56:20;;;;;;;77.07;25.30;;;;;;;2.00;97.65;101810.53;5115972;28;20209;-69
2022/01/16 04:58:47;;;;;;;59.90;27.47;;;;;;;2.00;97.62;101811.41;5115902;28;20535;-69
2022/01/16 05:01:15;;;;;;;66.50;26.73;;;;;;;1.99;97.60;101809.66;5115240;28;20599;-69
2022/01/16 05:03:42;;;;;;;67.93;27.57;;;;;;;2.03;98.01;101805.41;5115834;28;20189;-69
2022/01/16 05:06:10;;;;;;;63.37;28.40;;;;;;;2.04;97.85;101808.00;5115985;28;20205;-69
2022/01/16 05:08:37;;;;;;;62.23;29.97;;;;;;;2.10;97.72;101805.50;5115632;28;20216;-69
2022/01/16 05:11:05;;;;;;;75.13;27.77;;;;;;;2.13;97.76;101796.91;5115921;28;20193;-69
2022/01/16 05:18:51;;;;;;;60.23;27.00;;;;;;;2.13;97.75;101791.72;5115844;28;20199;-69
2022/01/16 05:21:18;;;;;;;73.23;29.17;;;;;;;2.11;97.38;101786.56;5116029;28;20592;-70
2022/01/16 05:23:45;;;;;;;71.17;30.07;;;;;;;2.11;97.59;101789.13;5115451;28;20181;-69
2022/01/16 05:26:14;;;;;;;68.83;29.67;;;;;;;2.13;97.25;101786.56;5115380;28;20216;-70
2022/01/16 05:28:40;;;;;;;69.07;28.13;;;;;;;2.18;97.38;101790.06;5115301;28;20235;-69
2022/01/16 05:31:07;;;;;;;82.67;31.20;;;;;;;2.15;97.30;101795.22;5115574;28;20181;-69
2022/01/16 05:33:34;;;;;;;72.97;29.70;;;;;;;2.07;97.48;101802.00;5115261;28;20193;-69
2022/01/16 05:36:00;;;;;;;67.67;30.20;;;;;;;2.11;97.26;101794.31;5115428;28;20199;-69
2022/01/16 05:38:27;;;;;;;78.70;30.93;;;;;;;2.17;97.30;101798.69;5115152;28;20215;-69
2022/01/16 05:40:53;;;;;;;81.83;32.13;;;;;;;2.11;97.22;101786.56;5115095;28;20193;-69
2022/01/16 05:43:19;;;;;;;83.47;30.47;;;;;;;2.05;97.18;101786.47;5115335;28;20194;-69
2022/01/16 05:45:46;;;;;;;74.60;31.23;;;;;;;2.00;97.53;101790.75;5115222;28;20647;-69
2022/01/16 05:48:13;;;;;;;78.07;31.40;;;;;;;2.00;97.53;101795.91;5114826;28;20217;-69
2022/01/16 05:50:39;;;;;;;78.93;32.47;;;;;;;2.03;97.41;101787.31;5114895;28;20203;-69
2022/01/16 05:53:06;;;;;;;82.47;32.60;;;;;;;1.99;97.41;101789.00;5115666;28;20727;-69
2022/01/16 05:55:36;;;;;;;87.83;34.10;;;;;;;1.97;97.58;101795.00;5115069;28;20189;-69
2022/01/16 05:58:04;;;;;;;82.30;34.00;;;;;;;1.93;97.55;101799.28;5097773;28;20262;-69
2022/01/16 06:00:32;;;;;;;90.60;33.90;;;;;;;1.93;97.86;101792.41;5114695;28;20182;-69
2022/01/16 06:02:59;;;;;;;84.70;31.50;;;;;;;2.02;97.79;101783.88;5114638;28;20548;-69
2022/01/16 06:05:26;;;;;;;86.00;34.53;;;;;;;2.14;97.80;101785.72;5115127;28;20192;-69
2022/01/16 06:07:58;;;;;;;85.00;32.07;;;;;;;2.21;97.71;101777.16;5114720;28;20213;-70
2022/01/16 06:10:25;;;;;;;87.83;31.93;;;;;;;2.16;97.65;101769.41;5114743;28;20186;-70
2022/01/16 06:12:52;;;;;;;76.13;32.23;;;;;;;2.14;97.73;101775.38;5114769;28;20190;-69
2022/01/16 06:15:22;;;;;;;83.70;34.47;;;;;;;2.17;97.73;101778.00;5114466;28;20247;-69
2022/01/16 06:17:50;;;;;;;91.50;34.70;;;;;;;2.23;97.59;101783.25;5114364;28;20749;-70
2022/01/16 06:20:17;;;;;;;92.57;35.73;;;;;;;2.28;97.59;101776.38;5114227;28;20244;-70
2022/01/16 06:22:44;;;;;;;83.70;35.00;;;;;;;2.38;97.53;101764.44;5114556;28;20206;-69
2022/01/16 06:25:12;;;;;;;88.80;34.63;;;;;;;2.32;97.32;101773.00;5114543;28;20182;-69
2022/01/16 06:27:39;;;;;;;84.80;34.43;;;;;;;2.33;97.75;101785.06;5114943;28;20217;-70
2022/01/16 06:30:08;;;;;;;88.47;36.33;;;;;;;2.37;97.22;101775.63;5114141;28;20682;-69
2022/01/16 06:32:35;;;;;;;88.90;35.93;;;;;;;2.38;97.02;101780.81;5114048;28;20203;-69
2022/01/16 06:35:05;;;;;;;78.00;34.17;;;;;;;2.45;97.26;101784.31;5114114;28;20181;-69
2022/01/16 06:37:32;;;;;;;85.97;36.23;;;;;;;2.47;96.83;101782.59;5095841;28;20225;-69
2022/01/16 06:39:59;;;;;;;94.50;35.10;;;;;;;2.31;97.07;101781.59;5114034;28;20222;-69
2022/01/16 06:42:25;;;;;;;85.90;34.83;;;;;;;2.36;97.24;101785.09;5114257;28;20540;-69
2022/01/16 06:44:52;;;;;;;83.23;34.57;;;;;;;2.41;96.95;101788.56;5114007;28;20185;-69
2022/01/16 06:47:19;;;;;;;87.00;35.90;;;;;;;2.37;96.76;101789.41;5113779;28;20250;-69
2022/01/16 06:49:45;;;;;;;82.30;33.57;;;;;;;2.42;96.97;101795.47;5113903;28;20189;-69
2022/01/16 06:52:12;;;;;;;79.00;34.50;;;;;;;2.54;96.71;101796.44;5113850;28;20301;-69
2022/01/16 06:54:39;;;;;;;88.30;35.97;;;;;;;2.46;96.46;101794.66;5114392;28;20234;-69
2022/01/16 06:57:06;;;;;;;76.73;34.90;;;;;;;2.42;96.73;101805.81;5095517;28;20554;-70
2022/01/16 06:59:35;;;;;;;83.53;35.57;;;;;;;2.46;96.31;101807.59;5113805;28;20593;-69
2022/01/16 07:02:01;;;;;;;87.80;35.70;;;;;;;2.37;96.54;101807.50;5114266;28;20185;-69
2022/01/16 07:04:28;;;;;;;82.20;35.13;;;;;;;2.36;96.92;101807.50;5113959;28;20193;-69
2022/01/16 07:06:54;;;;;;;81.23;36.23;;;;;;;2.49;96.67;101812.75;5113568;28;20593;-69
2022/01/16 07:09:21;;;;;;;82.23;35.53;;;;;;;2.38;96.85;101813.53;5095381;28;20263;-69
2022/01/16 07:11:47;;;;;;;94.43;36.37;;;;;;;2.39;96.57;101808.38;5114109;28;20181;-69
2022/01/16 07:14:14;;;;;;;87.90;35.97;;;;;;;2.50;96.42;101805.91;5113626;28;20268;-69
2022/01/16 07:16:40;;;;;;;74.67;36.20;;;;;;;2.54;96.59;101815.41;5113504;28;20209;-69
2022/01/16 07:19:07;;;;;;;91.27;39.83;;;;;;;2.61;96.16;101816.34;5113795;28;20647;-69
2022/01/16 07:21:33;;;;;;;101.00;35.50;;;;;;;2.59;96.14;101808.56;5113492;28;20197;-69
2022/01/16 07:24:00;;;;;;;79.97;37.27;;;;;;;2.58;96.57;101824.94;5098553;28;20177;-69
2022/01/16 07:26:26;;;;;;;79.00;35.53;;;;;;;2.71;96.34;101825.88;5117695;28;20262;-69
2022/01/16 07:28:53;;;;;;;94.10;36.97;;;;;;;2.78;95.88;101830.25;5117536;28;20248;-69
2022/01/16 07:31:19;;;;;;;81.77;34.87;;;;;;;2.79;95.99;101831.13;5117882;28;20246;-69
2022/01/16 07:33:46;;;;;;;81.30;35.20;;;;;;;2.84;96.10;101832.03;5117555;28;20271;-69
2022/01/16 07:36:12;;;;;;;75.17;37.23;;;;;;;2.82;95.68;101839.78;5117458;28;20695;-70
2022/01/16 07:38:39;;;;;;;80.83;35.40;;;;;;;2.94;95.54;101832.16;5117475;28;20188;-69
2022/01/16 07:41:05;;;;;;;79.97;36.33;;;;;;;2.94;95.23;101837.31;5117771;28;20516;-69
2022/01/16 07:43:32;;;;;;;72.53;35.70;;;;;;;2.87;95.48;101851.06;5117768;28;20237;-69
2022/01/16 07:45:59;;;;;;;75.33;34.53;;;;;;;2.91;95.50;101846.75;5117219;28;20189;-69
2022/01/16 07:48:26;;;;;;;76.37;35.27;;;;;;;2.97;95.58;101833.88;5117477;28;20206;-69
2022/01/16 07:50:52;;;;;;;82.37;35.97;;;;;;;3.01;95.11;101831.34;5117533;28;20218;-69
2022/01/16 07:53:19;;;;;;;78.40;37.20;;;;;;;3.06;94.93;101843.44;5117468;28;20199;-69
2022/01/16 07:55:45;;;;;;;75.27;35.27;;;;;;;3.06;95.22;101851.19;5117174;28;20186;-69
2022/01/16 07:58:12;;;;;;;76.97;35.90;;;;;;;3.14;95.36;101849.50;5117197;28;20206;-69
2022/01/16 08:00:38;;;;;;;77.60;35.70;;;;;;;3.03;95.25;101860.66;5099195;28;20192;-69
2022/01/16 08:03:05;;;;;;;80.13;35.63;;;;;;;3.08;95.06;101852.94;5117553;28;20267;-69
2022/01/16 08:05:34;;;;;;;80.77;36.57;;;;;;;3.13;95.12;101855.56;5116945;28;20538;-69
2022/01/16 08:08:01;;;;;;;67.93;34.17;;;;;;;3.10;95.14;101858.13;5117040;28;20207;-69
2022/01/16 08:10:28;;;;;;;76.30;37.77;;;;;;;3.15;94.98;101861.63;5098782;28;20233;-69
2022/01/16 08:12:54;;;;;;;85.50;34.43;;;;;;;3.15;95.01;101866.81;5117383;28;20197;-69
2022/01/16 08:15:21;;;;;;;82.67;34.50;;;;;;;3.10;95.16;101871.94;5116740;28;20191;-69
2022/01/16 08:17:47;;;;;;;78.37;35.50;;;;;;;3.06;94.96;101861.53;5116910;28;20211;-69
2022/01/16 08:20:14;;;;;;;75.97;35.37;;;;;;;3.09;95.04;101859.00;5116682;28;20686;-69
2022/01/16 08:22:40;;;;;;;75.20;36.47;;;;;;;3.07;95.36;101858.09;5116462;28;20240;-69
2022/01/16 08:25:07;;;;;;;87.40;37.50;;;;;;;3.11;95.02;101871.06;5098267;28;20709;-69
2022/01/16 08:27:34;;;;;;;86.90;36.50;;;;;;;3.06;95.11;101864.97;5116808;28;20202;-69
2022/01/16 08:30:04;;;;;;;78.90;36.47;;;;;;;3.02;95.16;101868.41;5116906;28;20279;-69
2022/01/16 08:32:31;;;;;;;95.20;38.43;;;;;;;2.97;95.46;101863.19;5098890;28;20647;-69
2022/01/16 08:34:58;;;;;;;82.17;37.77;;;;;;;3.10;95.56;101852.97;5117396;28;20656;-69
2022/01/16 08:37:24;;;;;;;85.57;37.23;;;;;;;3.09;95.42;101865.03;5117595;28;20230;-69
2022/01/16 08:39:50;;;;;;;79.97;38.30;;;;;;;3.10;95.23;101866.75;5116890;28;20186;-69
2022/01/16 08:42:17;;;;;;;84.23;34.93;;;;;;;3.10;95.42;101866.75;5116516;28;20238;-69
2022/01/16 08:44:43;;;;;;;68.47;33.87;;;;;;;3.10;95.44;101878.84;5117126;28;20254;-69
2022/01/16 08:47:10;;;;;;;82.23;35.93;;;;;;;3.15;95.44;101872.84;5117267;28;20601;-69
2022/01/16 08:49:37;;;;;;;76.63;35.53;;;;;;;3.01;95.73;101877.91;5116264;28;20239;-69
2022/01/16 08:52:05;;;;;;;75.67;37.73;;;;;;;3.11;95.54;101873.66;5116288;28;20194;-69
2022/01/16 08:54:33;;;;;;;85.43;37.60;;;;;;;3.12;95.31;101866.75;5116134;28;20709;-69
2022/01/16 08:57:01;;;;;;;73.03;34.97;;;;;;;3.11;95.74;101883.16;5115916;28;20204;-70
2022/01/16 08:59:28;;;;;;;75.47;35.70;;;;;;;3.11;95.30;101886.59;5115871;28;20182;-69
2022/01/16 09:01:55;;;;;;;70.57;35.00;;;;;;;3.08;95.55;101873.66;5116398;28;20244;-69
2022/01/16 09:04:21;;;;;;;74.20;33.63;;;;;;;3.15;95.62;101885.78;5116084;28;20183;-69
2022/01/16 09:06:48;;;;;;;77.67;35.30;;;;;;;3.16;95.52;101884.91;5115895;28;20212;-69
2022/01/16 09:09:14;;;;;;;75.37;34.93;;;;;;;3.17;95.62;101885.78;5115751;28;20205;-69
2022/01/16 09:11:41;;;;;;;70.90;35.27;;;;;;;3.08;95.61;101896.06;5115972;28;20189;-69
2022/01/16 09:14:08;;;;;;;71.33;34.30;;;;;;;3.18;95.48;101898.72;5116210;28;20539;-69
2022/01/16 09:16:34;;;;;;;69.03;33.80;;;;;;;3.18;95.27;101896.13;5115529;28;20221;-70
2022/01/16 09:19:01;;;;;;;79.40;36.37;;;;;;;3.22;95.39;101894.47;5116148;28;20207;-69
2022/01/16 09:21:27;;;;;;;74.33;33.97;;;;;;;3.30;95.16;101890.22;5115665;28;20246;-69
2022/01/16 09:23:54;;;;;;;74.17;33.87;;;;;;;3.28;95.26;101897.94;5115470;28;20195;-69
2022/01/16 09:26:20;;;;;;;73.17;34.33;;;;;;;3.36;95.03;101907.47;5115251;28;20212;-69
2022/01/16 09:28:47;;;;;;;75.23;33.67;;;;;;;3.38;94.73;101906.66;5115303;28;20708;-69
2022/01/16 09:31:13;;;;;;;69.27;32.87;;;;;;;3.44;94.76;101905.84;5115282;28;20188;-69
2022/01/16 09:33:40;;;;;;;73.53;32.97;;;;;;;3.51;94.22;101912.78;5115739;28;20263;-69
2022/01/16 09:36:08;;;;;;;67.90;32.17;;;;;;;3.45;94.40;101911.03;5115334;28;20195;-70
2022/01/16 09:38:36;;;;;;;79.73;32.90;;;;;;;3.61;93.88;101916.31;5115388;28;20185;-69
2022/01/16 09:41:07;;;;;;;68.70;33.57;;;;;;;3.64;93.72;101916.31;5115428;28;20533;-69
2022/01/16 09:43:35;;;;;;;62.97;32.07;;;;;;;3.61;93.58;101917.16;5097242;28;20191;-69
2022/01/16 09:46:02;;;;;;;67.97;32.13;;;;;;;3.59;94.04;101927.53;5114232;28;20202;-70
2022/01/16 09:48:28;;;;;;;61.60;31.47;;;;;;;3.59;93.26;101919.75;5115129;28;20206;-69
2022/01/16 09:50:55;;;;;;;55.83;30.37;;;;;;;3.62;93.58;101920.63;5115338;28;20565;-69
2022/01/16 09:53:23;;;;;;;62.13;31.10;;;;;;;3.62;93.31;101920.63;5114877;28;20194;-69
2022/01/16 09:55:50;;;;;;;68.80;31.10;;;;;;;3.67;93.29;101929.28;5114685;28;20192;-71
2022/01/16 09:58:17;;;;;;;65.50;30.87;;;;;;;3.72;93.00;101927.63;5114798;28;20188;-69
2022/01/16 10:00:43;;;;;;;60.13;31.70;;;;;;;3.70;92.78;101924.13;5114980;28;20202;-69
2022/01/16 10:03:33;;;;;;;62.03;29.10;;;;;;;3.73;92.79;101924.16;5114800;28;20199;-69
2022/01/16 10:06:26;;;;;;;64.27;30.03;;;;;;;3.73;92.62;101925.03;5114517;28;20213;-69
2022/01/16 10:08:56;;;;;;;62.73;30.90;;;;;;;3.80;92.47;101928.53;5110090;28;20216;-69
2022/01/16 10:11:28;;;;;;;61.00;29.73;;;;;;;3.80;92.36;101933.69;5114740;28;20548;-69
2022/01/16 10:14:00;;;;;;;74.53;31.07;;;;;;;3.82;92.50;101927.66;5114710;28;20179;-69
2022/01/16 10:16:32;;;;;;;60.90;30.20;;;;;;;3.90;92.02;101930.28;5114553;28;20200;-69
2022/01/16 10:19:00;;;;;;;56.53;28.30;;;;;;;3.94;91.82;101934.66;5114634;28;20597;-69
2022/01/16 10:21:38;;;;;;;60.07;28.87;;;;;;;3.95;91.62;101922.56;5114457;28;20192;-69
2022/01/16 10:24:17;;;;;;;59.13;29.43;;;;;;;4.00;91.39;101926.03;5114245;28;20172;-69
2022/01/16 10:26:44;;;;;;;64.57;29.43;;;;;;;4.02;91.22;101917.41;5114403;28;20218;-69
2022/01/16 10:29:20;;;;;;;64.30;30.13;;;;;;;4.03;91.34;101913.97;5114080;28;20199;-69
2022/01/16 10:31:49;;;;;;;62.53;30.47;;;;;;;4.04;91.12;101926.06;5114124;28;20176;-69
2022/01/16 10:34:27;;;;;;;56.00;27.73;;;;;;;4.06;90.88;101929.50;5114021;28;20205;-69
2022/01/16 10:36:54;;;;;;;64.13;28.50;;;;;;;4.08;90.66;101927.81;5114217;28;20622;-70
2022/01/16 10:39:20;;;;;;;60.63;27.43;;;;;;;4.05;90.75;101922.59;5114116;28;20678;-69
2022/01/16 10:42:16;;;;;;;53.43;28.20;;;;;;;4.02;91.17;101925.19;5113969;28;20252;-69
2022/01/16 10:44:44;;;;;;;58.70;28.17;;;;;;;4.04;90.81;101920.88;5114520;28;20184;-69
2022/01/16 10:47:29;;;;;;;55.27;28.03;;;;;;;4.12;91.02;101924.38;5113803;28;20688;-69
2022/01/16 10:50:19;;;;;;;57.13;27.97;;;;;;;4.20;90.66;101927.00;5114052;28;20693;-69
2022/01/16 10:52:48;;;;;;;55.20;28.03;;;;;;;4.17;90.65;101928.72;5114161;28;20181;-69
2022/01/16 10:55:16;;;;;;;56.47;27.10;;;;;;;4.27;90.80;101935.66;5114038;28;20192;-69
2022/01/16 10:57:43;;;;;;;53.87;27.33;;;;;;;4.31;90.20;101940.88;5096254;28;20600;-70
2022/01/16 11:00:17;;;;;;;57.73;28.40;;;;;;;4.31;90.19;101955.56;5114079;28;20187;-69
2022/01/16 11:02:47;;;;;;;57.67;26.63;;;;;;;4.37;90.01;101946.09;5113797;28;20180;-69
2022/01/16 11:05:20;;;;;;;56.10;26.87;;;;;;;4.28;90.39;101951.22;5113921;28;20188;-69
2022/01/16 11:07:54;;;;;;;48.70;25.30;;;;;;;4.36;90.34;101949.53;5113748;28;20598;-69
2022/01/16 11:10:29;;;;;;;48.93;26.53;;;;;;;4.37;90.15;101955.59;5113866;28;20238;-69
2022/01/16 11:12:59;;;;;;;51.53;25.20;;;;;;;4.42;90.57;101948.69;5114207;28;20183;-69
2022/01/16 11:15:27;;;;;;;57.70;26.47;;;;;;;4.41;90.60;101950.41;5113447;28;20285;-69
2022/01/16 11:17:54;;;;;;;56.87;26.77;;;;;;;4.35;91.07;101949.50;5113839;28;20282;-69
2022/01/16 11:20:27;;;;;;;57.30;26.60;;;;;;;4.35;90.82;101941.72;5113664;28;20680;-69
2022/01/16 11:23:02;;;;;;;55.30;26.67;;;;;;;4.39;91.34;101959.06;5113834;28;20182;-69
2022/01/16 11:25:33;;;;;;;52.90;28.13;;;;;;;4.30;91.69;101953.84;5113782;28;20169;-69
2022/01/16 11:28:02;;;;;;;60.10;27.10;;;;;;;4.31;91.59;101958.16;5113803;28;20196;-69
2022/01/16 11:30:31;;;;;;;72.80;27.57;;;;;;;4.42;91.41;101953.88;5113449;28;20208;-69
2022/01/16 11:32:58;;;;;;;51.33;26.80;;;;;;;4.41;91.69;101952.13;5113442;28;20189;-69
2022/01/16 11:35:26;;;;;;;59.23;28.73;;;;;;;4.38;91.82;101962.50;5113425;28;20185;-69
2022/01/16 11:37:53;;;;;;;50.10;26.00;;;;;;;4.46;91.64;101954.75;5113919;28;20220;-69
2022/01/16 11:40:29;;;;;;;58.23;27.73;;;;;;;4.43;91.81;101955.63;5113829;28;20238;-69
2022/01/16 11:43:32;;;;;;;58.77;27.73;;;;;;;4.44;91.86;101954.75;5095150;28;20177;-69
2022/01/16 11:46:01;;;;;;;59.10;27.80;;;;;;;4.50;91.67;101957.38;5113416;28;20234;-69
2022/01/16 11:48:35;;;;;;;58.67;28.50;;;;;;;4.49;92.23;101949.56;5113367;28;20189;-69
2022/01/16 11:54:13;;;;;;;59.60;29.00;;;;;;;4.58;92.03;101960.88;5113459;28;20651;-69
2022/01/16 11:56:42;;;;;;;62.50;26.37;;;;;;;4.64;91.83;101953.09;5094931;28;20535;-70
2022/01/16 11:59:11;;;;;;;69.93;29.33;;;;;;;4.59;92.00;101954.81;5113450;28;20195;-69
2022/01/16 12:01:52;;;;;;;65.77;27.90;;;;;;;4.59;92.11;101965.19;5113197;28;20223;-69
2022/01/16 12:04:28;;;;;;;61.13;28.63;;;;;;;4.56;92.11;101962.56;5113671;28;20181;-69
2022/01/16 12:07:17;;;;;;;69.70;29.70;;;;;;;4.57;92.45;101964.31;5113255;28;20200;-69
2022/01/16 12:12:16;;;;;;;55.93;28.43;;;;;;;4.61;92.54;101973.81;5098379;28;20184;-69
2022/01/16 12:15:19;;;;;;;59.50;29.67;;;;;;;4.64;92.45;101970.38;5117363;28;20193;-69